Time;durP1;ratioP1;P1;durP2;ratioP2;P2;SDS_P1;SDS_P2;PMS_P1;PMS_P2;Temp;Humidity;BMP_temperature;BMP_pressure;BME280_temperature;BME280_humidity;BME280_pressure;Samples;Min_cycle;Max_cycle;Signal;HPM_P1;HPM_P2
2022/03/09 00:01:17;;;;;;;17.10;7.68;;;-2.50;99.90;;;;;;5002730;28;20722;-66
2022/03/09 00:03:44;;;;;;;10.07;6.38;;;-2.50;99.90;;;;;;5005422;28;20431;-65
2022/03/09 00:06:11;;;;;;;11.07;7.18;;;-2.50;99.90;;;;;;5005823;28;21449;-69
2022/03/09 00:08:38;;;;;;;14.45;6.90;;;-2.60;99.90;;;;;;4999666;28;20699;-67
2022/03/09 00:11:04;;;;;;;14.20;6.90;;;-2.60;99.90;;;;;;5003132;28;20088;-69
2022/03/09 00:13:31;;;;;;;18.30;5.95;;;-2.60;99.90;;;;;;5002460;28;20484;-71
2022/03/09 00:15:58;;;;;;;11.30;7.97;;;-2.60;99.90;;;;;;5004894;28;20054;-65
2022/03/09 00:18:27;;;;;;;18.05;7.95;;;-2.70;99.90;;;;;;5002103;28;20050;-68
2022/03/09 00:20:53;;;;;;;10.77;6.65;;;-2.70;99.90;;;;;;5005773;28;20061;-65
2022/03/09 00:23:20;;;;;;;10.77;6.35;;;-2.70;99.90;;;;;;5002320;28;20124;-64
2022/03/09 00:25:47;;;;;;;21.10;7.38;;;-2.70;99.90;;;;;;4995406;28;20443;-67
2022/03/09 00:28:14;;;;;;;12.02;8.85;;;-2.70;99.90;;;;;;5008662;28;20191;-70
2022/03/09 00:30:41;;;;;;;13.20;8.43;;;-2.70;99.90;;;;;;5005633;28;20053;-65
2022/03/09 00:33:08;;;;;;;13.38;8.57;;;-2.70;99.90;;;;;;4999990;28;20097;-68
2022/03/09 00:35:38;;;;;;;24.90;9.02;;;-2.70;99.90;;;;;;5006488;28;20065;-72
2022/03/09 00:38:07;;;;;;;11.57;7.85;;;-2.80;99.90;;;;;;5000354;28;20058;-69
2022/03/09 00:40:34;;;;;;;15.60;8.75;;;-2.80;99.90;;;;;;4996074;28;20046;-67
2022/03/09 00:43:01;;;;;;;13.27;7.25;;;-2.80;99.90;;;;;;5006950;28;20054;-64
2022/03/09 00:45:28;;;;;;;13.27;7.78;;;-2.80;99.90;;;;;;5006549;28;20050;-71
2022/03/09 00:47:55;;;;;;;11.77;6.70;;;-2.80;99.90;;;;;;5008360;28;20050;-64
2022/03/09 00:50:22;;;;;;;19.58;7.45;;;-2.80;99.90;;;;;;5004964;28;20046;-65
2022/03/09 00:52:49;;;;;;;10.30;6.68;;;-2.90;99.90;;;;;;5019291;28;20061;-76
2022/03/09 00:55:16;;;;;;;12.95;7.25;;;-2.90;99.90;;;;;;5001610;28;20069;-64
2022/03/09 00:57:43;;;;;;;17.63;7.88;;;-2.90;99.90;;;;;;5007946;28;20518;-64
2022/03/09 01:00:10;;;;;;;9.90;6.40;;;-2.90;99.90;;;;;;5006193;28;20121;-64
2022/03/09 01:02:57;;;;;;;9.65;7.80;;;-2.90;99.90;;;;;;4999213;28;20052;-69
2022/03/09 01:05:25;;;;;;;14.88;7.03;;;-2.90;99.90;;;;;;5007462;28;20419;-68
2022/03/09 01:07:52;;;;;;;16.42;7.72;;;-2.90;99.90;;;;;;5007123;28;20038;-64
2022/03/09 01:10:19;;;;;;;14.50;8.90;;;-2.90;99.90;;;;;;5023682;28;20085;-67
2022/03/09 01:12:46;;;;;;;16.35;7.97;;;-3.00;99.90;;;;;;5007204;28;20123;-64
2022/03/09 01:15:14;;;;;;;13.70;6.82;;;-3.00;99.90;;;;;;5005793;28;20053;-65
2022/03/09 01:17:44;;;;;;;11.55;8.95;;;-3.00;99.90;;;;;;5004652;28;20773;-64
2022/03/09 01:20:12;;;;;;;9.95;6.93;;;-3.00;99.90;;;;;;5008672;28;20054;-64
2022/03/09 01:22:39;;;;;;;14.32;8.07;;;-3.00;99.90;;;;;;5002938;28;20053;-67
2022/03/09 01:25:07;;;;;;;18.02;8.95;;;-3.00;99.90;;;;;;5004342;28;20042;-66
2022/03/09 01:27:35;;;;;;;14.10;8.77;;;-3.00;99.90;;;;;;5004165;28;20100;-67
2022/03/09 01:30:03;;;;;;;10.45;6.70;;;-3.00;99.90;;;;;;5005406;28;20105;-64
2022/03/09 01:32:30;;;;;;;9.80;6.53;;;-3.10;99.90;;;;;;5006696;28;20077;-65
2022/03/09 01:34:57;;;;;;;8.48;6.40;;;-3.10;99.90;;;;;;5001896;28;20046;-65
2022/03/09 01:37:24;;;;;;;14.25;6.55;;;-3.10;99.90;;;;;;5001215;28;20491;-66
2022/03/09 01:39:51;;;;;;;11.80;7.90;;;-3.10;99.90;;;;;;5005999;28;20412;-64
2022/03/09 01:42:18;;;;;;;14.75;6.55;;;-3.10;99.90;;;;;;5006216;28;20752;-64
2022/03/09 01:44:45;;;;;;;15.88;5.82;;;-3.10;99.90;;;;;;5003349;28;20046;-64
2022/03/09 01:47:12;;;;;;;17.70;6.75;;;-3.10;99.90;;;;;;5003381;28;20144;-67
2022/03/09 01:49:39;;;;;;;10.48;5.72;;;-3.10;99.90;;;;;;5007434;28;20084;-66
2022/03/09 01:52:07;;;;;;;9.10;6.05;;;-3.20;99.90;;;;;;5004085;28;20054;-65
2022/03/09 01:54:34;;;;;;;12.20;6.80;;;-3.20;99.90;;;;;;5007363;28;20058;-64
2022/03/09 01:57:02;;;;;;;14.20;6.57;;;-3.20;99.90;;;;;;5005079;28;20088;-63
2022/03/09 01:59:29;;;;;;;14.70;7.68;;;-3.20;99.90;;;;;;5009088;28;20562;-71
2022/03/09 02:10:52;;;;;;;9.43;6.55;;;-3.20;99.90;;;;;;5023475;28;20072;-70
2022/03/09 02:13:19;;;;;;;12.98;7.35;;;-3.20;99.90;;;;;;5016751;28;20140;-66
2022/03/09 02:15:45;;;;;;;12.52;7.35;;;-3.20;99.90;;;;;;5031507;28;20562;-65
2022/03/09 02:18:12;;;;;;;12.98;7.00;;;-3.20;99.90;;;;;;5038523;28;20428;-67
2022/03/09 02:20:44;;;;;;;11.57;5.97;;;-3.20;99.90;;;;;;5025109;28;20054;-65
2022/03/09 02:23:11;;;;;;;14.95;6.75;;;-3.20;99.90;;;;;;5008448;28;20060;-64
2022/03/09 02:25:38;;;;;;;21.00;6.93;;;-3.30;99.90;;;;;;5025572;28;20080;-69
2022/03/09 02:28:05;;;;;;;10.18;7.32;;;-3.20;99.90;;;;;;5027420;28;20061;-64
2022/03/09 02:30:31;;;;;;;16.08;6.60;;;-3.20;99.90;;;;;;5023572;28;20093;-65
2022/03/09 02:32:59;;;;;;;12.73;6.60;;;-3.20;99.90;;;;;;5023468;28;20120;-65
2022/03/09 02:35:26;;;;;;;11.75;6.00;;;-3.20;99.90;;;;;;5027631;28;20073;-71
2022/03/09 02:37:53;;;;;;;16.35;9.82;;;-3.20;99.90;;;;;;5022415;28;20302;-63
2022/03/09 02:40:20;;;;;;;16.15;6.72;;;-3.20;99.90;;;;;;5027095;28;20160;-65
2022/03/09 02:42:46;;;;;;;13.93;6.05;;;-3.20;99.90;;;;;;5024253;28;20085;-65
2022/03/09 02:45:14;;;;;;;13.32;5.70;;;-3.20;99.90;;;;;;5037246;28;20093;-64
2022/03/09 02:47:42;;;;;;;12.63;5.97;;;-3.20;99.90;;;;;;5030166;28;20178;-67
2022/03/09 02:50:12;;;;;;;11.07;5.85;;;-3.20;99.90;;;;;;5030689;28;20554;-64
2022/03/09 02:52:40;;;;;;;8.73;6.13;;;-3.30;99.90;;;;;;5024737;28;20214;-67
2022/03/09 02:55:08;;;;;;;17.08;6.35;;;-3.30;99.90;;;;;;5021834;28;20075;-64
2022/03/09 02:57:35;;;;;;;15.73;6.45;;;-3.20;99.90;;;;;;5028941;28;20083;-64
2022/03/09 03:00:04;;;;;;;17.02;9.95;;;-3.20;99.90;;;;;;5029628;28;20088;-65
2022/03/09 03:02:31;;;;;;;14.20;7.53;;;-3.30;99.90;;;;;;5026479;28;20075;-65
2022/03/09 03:04:58;;;;;;;11.00;7.40;;;-3.30;99.90;;;;;;5029959;28;20046;-66
2022/03/09 03:07:25;;;;;;;22.63;10.27;;;-3.20;99.90;;;;;;5027325;28;20042;-68
2022/03/09 03:09:52;;;;;;;15.60;7.47;;;-3.30;99.90;;;;;;5028778;28;20486;-68
2022/03/09 03:12:19;;;;;;;13.70;8.73;;;-3.30;99.90;;;;;;5029845;28;20080;-64
2022/03/09 03:14:46;;;;;;;12.82;8.35;;;-3.30;99.90;;;;;;5031619;28;20412;-64
2022/03/09 03:17:13;;;;;;;17.90;8.50;;;-3.30;99.90;;;;;;5027497;28;20459;-63
2022/03/09 03:19:42;;;;;;;18.50;10.95;;;-3.30;99.90;;;;;;5005109;28;20096;-71
2022/03/09 03:22:09;;;;;;;18.23;9.57;;;-3.30;99.90;;;;;;5016412;28;20101;-73
2022/03/09 03:24:36;;;;;;;18.67;10.45;;;-3.30;99.90;;;;;;5007648;28;20077;-64
2022/03/09 03:27:03;;;;;;;16.30;10.02;;;-3.30;99.90;;;;;;5011340;28;20459;-65
2022/03/09 03:29:30;;;;;;;15.30;10.45;;;-3.30;99.90;;;;;;5002829;28;20228;-71
2022/03/09 03:31:57;;;;;;;22.17;11.88;;;-3.30;99.90;;;;;;5008684;28;20045;-70
2022/03/09 03:34:24;;;;;;;23.17;11.63;;;-3.30;99.90;;;;;;5006125;28;20088;-64
2022/03/09 03:36:51;;;;;;;16.25;11.18;;;-3.30;99.90;;;;;;4998500;28;20038;-64
2022/03/09 03:39:18;;;;;;;18.83;11.55;;;-3.20;99.90;;;;;;4992115;28;20064;-65
2022/03/09 03:41:45;;;;;;;23.10;11.50;;;-3.30;99.90;;;;;;4990720;28;20062;-64
2022/03/09 03:44:12;;;;;;;18.58;12.73;;;-3.30;99.90;;;;;;5005105;28;20391;-66
2022/03/09 03:46:41;;;;;;;22.33;10.82;;;-3.30;99.90;;;;;;5000974;28;20041;-65
2022/03/09 03:49:08;;;;;;;18.10;11.30;;;-3.30;99.90;;;;;;5004390;28;20049;-64
2022/03/09 03:51:35;;;;;;;23.95;11.57;;;-3.30;99.90;;;;;;4991350;28;20064;-64
2022/03/09 03:54:02;;;;;;;14.07;10.43;;;-3.30;99.90;;;;;;5008613;28;20120;-64
2022/03/09 03:56:29;;;;;;;16.42;10.02;;;-3.30;99.90;;;;;;5016943;28;20165;-66
2022/03/09 03:58:58;;;;;;;14.55;10.70;;;-3.30;99.90;;;;;;5000977;28;20073;-67
2022/03/09 04:01:25;;;;;;;16.25;10.07;;;-3.30;99.90;;;;;;5003695;28;20499;-66
2022/03/09 04:03:53;;;;;;;16.35;9.82;;;-3.20;99.90;;;;;;5001413;28;20046;-73
2022/03/09 04:06:24;;;;;;;19.45;10.68;;;-3.20;99.90;;;;;;5006847;28;20064;-69
2022/03/09 04:08:50;;;;;;;18.08;11.40;;;-3.20;99.90;;;;;;5004420;28;20114;-67
2022/03/09 04:11:17;;;;;;;23.80;14.13;;;-3.20;99.90;;;;;;5005331;28;20084;-72
2022/03/09 04:13:44;;;;;;;14.95;9.98;;;-3.20;99.90;;;;;;5009856;28;20081;-68
2022/03/09 04:16:12;;;;;;;23.48;11.52;;;-3.30;99.90;;;;;;5009209;28;20053;-67
2022/03/09 04:18:38;;;;;;;21.42;12.23;;;-3.20;99.90;;;;;;5017772;28;20061;-71
2022/03/09 04:21:06;;;;;;;24.08;12.30;;;-3.30;99.90;;;;;;5023242;28;20046;-66
2022/03/09 04:23:33;;;;;;;26.08;11.90;;;-3.30;99.90;;;;;;5023003;28;20045;-67
2022/03/09 04:26:06;;;;;;;20.92;12.15;;;-3.30;99.90;;;;;;5023596;28;20395;-67
2022/03/09 04:28:34;;;;;;;16.60;10.38;;;-3.30;99.90;;;;;;5021534;28;20126;-64
2022/03/09 04:31:01;;;;;;;16.30;11.20;;;-3.30;99.90;;;;;;5026516;28;20605;-65
2022/03/09 04:33:28;;;;;;;19.55;11.32;;;-3.30;99.90;;;;;;5026085;28;20096;-66
2022/03/09 04:35:57;;;;;;;19.30;10.70;;;-3.30;99.90;;;;;;5024050;28;20321;-65
2022/03/09 04:38:25;;;;;;;19.73;11.13;;;-3.30;99.90;;;;;;5025362;28;20132;-63
2022/03/09 04:40:52;;;;;;;15.02;9.73;;;-3.30;99.90;;;;;;5024356;28;20053;-64
2022/03/09 04:43:19;;;;;;;21.27;11.75;;;-3.40;99.90;;;;;;5010960;28;20076;-63
2022/03/09 04:45:47;;;;;;;23.00;12.05;;;-3.40;99.90;;;;;;5007746;28;20049;-63
2022/03/09 04:48:14;;;;;;;17.98;10.45;;;-3.40;99.90;;;;;;5033094;28;20069;-64
2022/03/09 04:50:41;;;;;;;12.88;8.77;;;-3.40;99.90;;;;;;5018791;28;20479;-63
2022/03/09 04:53:08;;;;;;;15.52;9.02;;;-3.40;99.90;;;;;;5023354;28;20834;-66
2022/03/09 04:55:35;;;;;;;16.75;9.30;;;-3.40;99.90;;;;;;5022391;28;20037;-65
2022/03/09 04:58:02;;;;;;;14.10;10.90;;;-3.40;99.90;;;;;;5022017;28;20180;-63
2022/03/09 05:00:29;;;;;;;13.98;9.00;;;-3.40;99.90;;;;;;5015697;28;20056;-72
2022/03/09 05:02:57;;;;;;;18.17;9.18;;;-3.40;99.90;;;;;;5020289;28;20415;-64
2022/03/09 05:05:25;;;;;;;17.38;9.05;;;-3.40;99.90;;;;;;5025153;28;20602;-67
2022/03/09 05:07:52;;;;;;;15.88;9.57;;;-3.40;99.90;;;;;;5022812;28;20140;-66
2022/03/09 05:10:19;;;;;;;21.05;10.05;;;-3.40;99.90;;;;;;5007229;28;20129;-64
2022/03/09 05:12:46;;;;;;;18.55;9.68;;;-3.40;99.90;;;;;;5022557;28;20063;-63
2022/03/09 05:15:14;;;;;;;16.10;8.75;;;-3.40;99.90;;;;;;5026704;28;20480;-65
2022/03/09 05:17:44;;;;;;;17.23;10.50;;;-3.40;99.90;;;;;;5026941;28;20894;-64
2022/03/09 05:20:12;;;;;;;16.40;9.63;;;-3.40;99.90;;;;;;5021697;28;20088;-67
2022/03/09 05:22:39;;;;;;;19.67;8.35;;;-3.40;99.90;;;;;;5004729;28;20144;-64
2022/03/09 05:25:06;;;;;;;25.80;10.52;;;-3.50;99.90;;;;;;5023778;28;20045;-64
2022/03/09 05:27:36;;;;;;;20.27;10.85;;;-3.50;99.90;;;;;;5021017;28;20395;-64
2022/03/09 05:30:04;;;;;;;17.75;9.45;;;-3.50;99.90;;;;;;5020095;28;20451;-67
2022/03/09 05:32:31;;;;;;;19.93;8.90;;;-3.40;99.90;;;;;;5017842;28;20135;-73
2022/03/09 05:34:58;;;;;;;22.90;9.63;;;-3.40;99.90;;;;;;5018280;28;20069;-67
2022/03/09 05:37:28;;;;;;;35.13;10.82;;;-3.40;99.90;;;;;;5022142;28;20417;-72
2022/03/09 05:39:55;;;;;;;29.55;11.25;;;-3.40;99.90;;;;;;5017500;28;20382;-69
2022/03/09 05:42:22;;;;;;;38.88;10.82;;;-3.30;99.90;;;;;;5021779;28;20087;-73
2022/03/09 05:44:49;;;;;;;24.58;9.95;;;-3.30;99.90;;;;;;5017631;28;20443;-68
2022/03/09 05:47:36;;;;;;;34.45;11.40;;;-3.20;99.90;;;;;;5022025;28;20264;-66
2022/03/09 05:50:05;;;;;;;33.13;10.07;;;-3.20;99.90;;;;;;5017398;28;20522;-66
2022/03/09 05:52:32;;;;;;;29.40;9.63;;;-3.20;99.90;;;;;;5023454;28;20045;-72
2022/03/09 05:54:59;;;;;;;32.40;12.18;;;-3.10;99.90;;;;;;5018003;28;20460;-68
2022/03/09 05:57:26;;;;;;;35.35;13.43;;;-3.10;99.90;;;;;;5020054;28;20045;-72
2022/03/09 05:59:53;;;;;;;25.45;10.05;;;-3.10;99.90;;;;;;5018739;28;20073;-64
2022/03/09 06:02:20;;;;;;;39.42;11.57;;;-3.10;99.90;;;;;;5025291;28;20068;-67
2022/03/09 06:04:47;;;;;;;61.72;16.20;;;-3.10;99.90;;;;;;5019424;28;20499;-71
2022/03/09 06:07:14;;;;;;;40.95;12.68;;;-3.10;99.90;;;;;;5027980;28;20127;-65
2022/03/09 06:09:41;;;;;;;46.00;12.32;;;-3.00;99.90;;;;;;5023338;28;20056;-64
2022/03/09 06:12:08;;;;;;;38.90;10.75;;;-2.90;99.90;;;;;;5021380;28;20053;-69
2022/03/09 06:14:36;;;;;;;50.38;14.95;;;-2.90;99.90;;;;;;5015017;28;20160;-64
2022/03/09 06:17:03;;;;;;;47.97;15.05;;;-2.90;99.90;;;;;;5019133;28;20129;-66
2022/03/09 06:19:30;;;;;;;35.47;10.18;;;-2.80;99.90;;;;;;5019925;28;20072;-67
2022/03/09 06:21:57;;;;;;;40.28;11.00;;;-2.60;99.90;;;;;;5020348;28;20124;-64
2022/03/09 06:24:24;;;;;;;48.10;12.40;;;-2.40;99.90;;;;;;5019533;28;20057;-67
2022/03/09 06:26:54;;;;;;;32.17;11.27;;;-2.20;99.90;;;;;;5021320;28;20412;-70
2022/03/09 06:29:21;;;;;;;37.40;12.73;;;-2.00;99.90;;;;;;5001696;28;20128;-71
2022/03/09 06:31:48;;;;;;;25.00;11.95;;;-1.80;99.90;;;;;;5019885;28;20099;-65
2022/03/09 06:34:15;;;;;;;44.70;11.75;;;-1.60;99.90;;;;;;5019249;28;20660;-74
2022/03/09 06:36:45;;;;;;;35.85;9.15;;;-1.50;99.90;;;;;;5019447;28;20426;-65
2022/03/09 06:39:14;;;;;;;28.35;9.00;;;-1.30;99.90;;;;;;5025448;28;20126;-67
2022/03/09 06:41:41;;;;;;;32.17;9.93;;;-1.20;99.90;;;;;;5004417;28;20135;-70
2022/03/09 06:44:12;;;;;;;31.65;9.00;;;-1.00;99.90;;;;;;5019145;28;20143;-69
2022/03/09 06:46:40;;;;;;;34.38;8.88;;;-0.90;99.90;;;;;;5021876;28;20063;-63
2022/03/09 06:49:07;;;;;;;26.55;9.70;;;-0.70;99.90;;;;;;5018121;28;20051;-65
2022/03/09 06:51:34;;;;;;;17.77;6.78;;;-0.60;99.90;;;;;;5021897;28;20080;-65
2022/03/09 06:54:01;;;;;;;28.60;10.05;;;-0.40;99.90;;;;;;5019038;28;20045;-69
2022/03/09 06:56:28;;;;;;;17.05;8.98;;;-0.30;99.90;;;;;;5021417;28;20045;-67
2022/03/09 06:58:55;;;;;;;24.77;8.27;;;-0.10;99.90;;;;;;5022077;28;20472;-67
2022/03/09 07:01:22;;;;;;;11.38;5.38;;;-0.10;99.90;;;;;;5024897;28;20115;-69
2022/03/09 07:03:49;;;;;;;10.43;5.20;;;0.10;99.90;;;;;;5016272;28;20123;-65
2022/03/09 07:06:16;;;;;;;13.75;5.82;;;0.10;99.90;;;;;;5024346;28;20156;-64
2022/03/09 07:08:43;;;;;;;11.63;5.25;;;0.30;99.90;;;;;;5017087;28;20520;-69
2022/03/09 07:11:09;;;;;;;10.98;4.72;;;0.30;99.90;;;;;;5023078;28;20141;-65
2022/03/09 07:13:36;;;;;;;10.95;4.97;;;0.40;99.90;;;;;;5027313;28;20061;-68
2022/03/09 07:16:04;;;;;;;11.77;5.78;;;0.60;99.90;;;;;;5021936;28;20132;-69
2022/03/09 07:18:33;;;;;;;6.32;3.92;;;0.70;99.90;;;;;;5018041;28;20086;-66
2022/03/09 07:20:59;;;;;;;12.15;4.50;;;0.80;99.90;;;;;;5019720;28;20159;-64
2022/03/09 07:23:26;;;;;;;9.52;3.80;;;0.90;99.90;;;;;;5021426;28;20149;-68
2022/03/09 07:25:54;;;;;;;6.18;3.53;;;1.10;99.90;;;;;;5030220;28;20107;-68
2022/03/09 07:28:21;;;;;;;12.73;5.28;;;1.20;99.90;;;;;;5016064;28;20082;-64
2022/03/09 07:30:48;;;;;;;12.18;3.78;;;1.40;99.90;;;;;;5014861;28;20085;-69
2022/03/09 07:33:17;;;;;;;8.40;4.40;;;1.40;99.90;;;;;;5025430;28;20057;-69
2022/03/09 07:35:45;;;;;;;8.60;3.15;;;1.40;99.90;;;;;;5022707;28;20069;-66
2022/03/09 07:38:14;;;;;;;5.20;3.25;;;1.50;99.90;;;;;;5024589;28;20096;-68
2022/03/09 07:40:42;;;;;;;5.80;2.83;;;1.60;99.90;;;;;;5019376;28;20479;-66
2022/03/09 07:43:09;;;;;;;7.50;2.97;;;1.70;99.90;;;;;;5029071;28;20072;-64
2022/03/09 07:45:36;;;;;;;11.18;4.68;;;1.80;99.90;;;;;;5022051;28;20429;-67
2022/03/09 07:48:04;;;;;;;10.15;3.67;;;1.90;99.90;;;;;;5017158;28;20049;-65
2022/03/09 07:50:31;;;;;;;8.25;3.58;;;2.00;99.90;;;;;;5023473;28;20053;-71
2022/03/09 07:52:58;;;;;;;8.48;3.63;;;2.10;99.90;;;;;;5019592;28;20141;-65
2022/03/09 07:55:25;;;;;;;6.07;3.40;;;2.20;99.90;;;;;;5023389;28;20084;-66
2022/03/09 07:57:55;;;;;;;4.03;3.33;;;2.20;99.90;;;;;;5023437;28;20044;-66
2022/03/09 08:00:22;;;;;;;5.40;2.88;;;2.30;99.90;;;;;;5024660;28;20144;-71
2022/03/09 08:02:49;;;;;;;6.18;2.97;;;2.30;99.90;;;;;;5019245;28;20055;-65
2022/03/09 08:05:16;;;;;;;11.20;4.82;;;2.40;99.90;;;;;;5023636;28;20053;-66
2022/03/09 08:07:45;;;;;;;10.35;3.85;;;2.40;99.90;;;;;;5017499;28;20459;-65
2022/03/09 08:10:14;;;;;;;15.35;4.38;;;2.40;99.90;;;;;;5034313;28;20699;-66
2022/03/09 08:12:41;;;;;;;7.53;3.85;;;2.50;99.90;;;;;;5016598;28;20077;-65
2022/03/09 08:15:09;;;;;;;6.10;3.72;;;2.60;99.90;;;;;;5024425;28;20068;-70
2022/03/09 08:17:36;;;;;;;7.38;4.00;;;2.60;99.90;;;;;;5019005;28;20050;-65
2022/03/09 08:20:04;;;;;;;7.68;3.35;;;2.70;99.90;;;;;;5027382;28;20103;-65
2022/03/09 08:22:31;;;;;;;15.38;3.65;;;2.80;99.90;;;;;;5019638;28;20092;-72
2022/03/09 08:24:58;;;;;;;6.15;3.35;;;2.90;99.90;;;;;;5027525;28;20121;-67
2022/03/09 08:27:25;;;;;;;7.28;4.57;;;2.90;99.90;;;;;;5023955;28;20137;-67
2022/03/09 08:29:53;;;;;;;8.07;3.33;;;2.90;99.90;;;;;;5020945;28;20710;-70
2022/03/09 08:32:21;;;;;;;13.00;2.83;;;3.00;99.90;;;;;;5021168;28;20074;-66
2022/03/09 08:34:48;;;;;;;11.32;3.92;;;3.10;99.90;;;;;;5026273;28;20138;-70
2022/03/09 08:37:16;;;;;;;9.50;3.40;;;3.10;99.90;;;;;;5025440;28;20486;-69
2022/03/09 08:39:45;;;;;;;8.48;4.53;;;3.20;99.90;;;;;;5025598;28;20057;-68
2022/03/09 08:42:18;;;;;;;7.38;3.03;;;3.30;99.90;;;;;;5020514;28;20400;-64
2022/03/09 08:44:45;;;;;;;10.38;3.88;;;3.40;99.90;;;;;;5017633;28;20077;-70
2022/03/09 08:47:12;;;;;;;8.40;3.20;;;3.40;99.90;;;;;;5023029;28;20398;-67
2022/03/09 08:49:40;;;;;;;14.75;3.72;;;3.50;99.90;;;;;;5020796;28;20132;-66
2022/03/09 08:52:10;;;;;;;13.02;3.58;;;3.50;99.90;;;;;;5024167;28;20053;-68
2022/03/09 08:54:38;;;;;;;9.82;3.45;;;3.60;99.90;;;;;;5020688;28;20045;-72
2022/03/09 08:57:05;;;;;;;9.75;4.50;;;3.60;99.90;;;;;;5027490;28;20077;-66
2022/03/09 08:59:33;;;;;;;7.68;3.40;;;3.70;99.90;;;;;;5022794;28;20148;-71
2022/03/09 09:01:59;;;;;;;6.70;3.28;;;3.60;99.90;;;;;;5027114;28;20045;-66
2022/03/09 09:04:27;;;;;;;5.13;2.25;;;3.60;99.90;;;;;;5022028;28;20732;-70
2022/03/09 09:06:54;;;;;;;8.40;3.00;;;3.50;99.90;;;;;;5022021;28;20101;-72
2022/03/09 09:09:25;;;;;;;16.80;2.85;;;3.60;99.90;;;;;;5020681;28;20129;-74
2022/03/09 09:11:54;;;;;;;9.15;2.70;;;3.50;99.90;;;;;;5015808;28;20041;-72
2022/03/09 09:14:21;;;;;;;2.42;1.80;;;3.50;99.90;;;;;;5025676;28;20080;-68
2022/03/09 09:16:48;;;;;;;7.30;3.03;;;3.60;99.90;;;;;;5021494;28;20053;-71
2022/03/09 09:19:15;;;;;;;5.30;2.17;;;3.60;99.90;;;;;;5024382;28;20045;-71
2022/03/09 09:21:44;;;;;;;7.97;3.17;;;3.60;99.90;;;;;;5019718;28;21430;-66
2022/03/09 09:24:11;;;;;;;5.70;1.75;;;3.70;99.90;;;;;;5024734;28;20902;-65
2022/03/09 09:26:38;;;;;;;5.47;2.53;;;3.70;99.90;;;;;;5027101;28;20073;-68
2022/03/09 09:29:17;;;;;;;6.85;3.15;;;3.70;99.90;;;;;;5022747;28;20132;-65
2022/03/09 09:31:47;;;;;;;9.63;3.28;;;3.80;99.90;;;;;;5026204;28;20084;-65
2022/03/09 09:34:14;;;;;;;6.55;2.42;;;3.90;99.90;;;;;;5021949;28;20037;-64
2022/03/09 09:36:45;;;;;;;3.70;2.10;;;3.90;99.90;;;;;;5014903;28;20073;-64
2022/03/09 09:39:13;;;;;;;6.72;2.75;;;3.90;99.90;;;;;;5020796;28;20065;-64
2022/03/09 09:41:46;;;;;;;6.38;2.38;;;3.90;99.90;;;;;;5030730;28;20041;-69
2022/03/09 09:44:14;;;;;;;11.05;2.05;;;3.90;99.90;;;;;;5023745;28;20050;-69
2022/03/09 09:46:43;;;;;;;5.63;2.22;;;4.00;99.90;;;;;;5021974;28;20140;-66
2022/03/09 09:49:12;;;;;;;5.82;2.10;;;4.00;99.90;;;;;;5023629;28;20049;-64
2022/03/09 09:51:45;;;;;;;8.45;2.97;;;4.10;99.90;;;;;;5016511;28;20462;-65
2022/03/09 09:54:14;;;;;;;8.35;1.88;;;4.10;99.90;;;;;;5022414;28;20048;-70
2022/03/09 09:56:41;;;;;;;4.75;2.50;;;4.20;99.90;;;;;;5022942;28;20644;-66
2022/03/09 09:59:09;;;;;;;12.90;3.10;;;4.20;99.90;;;;;;5013130;28;20432;-65
2022/03/09 10:01:37;;;;;;;6.45;2.13;;;4.30;99.90;;;;;;5023945;28;20072;-68
2022/03/09 10:04:06;;;;;;;3.67;2.00;;;4.30;99.90;;;;;;5020607;28;20144;-64
2022/03/09 10:06:33;;;;;;;3.15;1.80;;;4.40;99.90;;;;;;5021512;28;20723;-72
2022/03/09 10:09:09;;;;;;;7.00;1.98;;;4.40;99.90;;;;;;5026276;28;20065;-64
2022/03/09 10:11:50;;;;;;;7.03;1.90;;;4.40;99.90;;;;;;5025326;28;20136;-64
2022/03/09 10:14:37;;;;;;;11.98;2.45;;;4.40;99.90;;;;;;5027506;28;20042;-64
2022/03/09 10:17:07;;;;;;;11.55;3.45;;;4.40;99.90;;;;;;5019249;28;20122;-65
2022/03/09 10:19:37;;;;;;;16.20;4.28;;;4.40;99.90;;;;;;5020362;28;20045;-73
2022/03/09 10:22:34;;;;;;;6.50;1.92;;;4.40;99.90;;;;;;5032043;28;20054;-68
2022/03/09 10:25:25;;;;;;;9.00;3.35;;;4.30;99.90;;;;;;5028846;28;20159;-71
2022/03/09 10:27:56;;;;;;;14.18;2.88;;;4.20;99.90;;;;;;5027184;28;20103;-65
2022/03/09 10:30:34;;;;;;;4.45;2.22;;;4.10;99.90;;;;;;5026603;28;20057;-66
2022/03/09 10:33:10;;;;;;;7.60;2.45;;;4.20;99.90;;;;;;5019230;28;20483;-66
2022/03/09 10:35:41;;;;;;;6.85;2.63;;;4.30;99.90;;;;;;5021908;28;20160;-66
2022/03/09 10:38:29;;;;;;;6.25;2.83;;;4.40;99.90;;;;;;5014782;28;20053;-69
2022/03/09 10:41:00;;;;;;;6.07;2.78;;;4.30;99.90;;;;;;5020170;28;20050;-67
2022/03/09 10:43:31;;;;;;;11.38;2.40;;;4.40;99.90;;;;;;5027763;28;20044;-68
2022/03/09 10:46:24;;;;;;;6.05;1.95;;;4.60;99.90;;;;;;5021487;28;20054;-70
2022/03/09 10:48:56;;;;;;;3.22;1.90;;;4.50;99.90;;;;;;5013389;28;20053;-64
2022/03/09 10:51:25;;;;;;;4.43;1.65;;;4.40;99.90;;;;;;5003950;28;20081;-65
2022/03/09 10:53:52;;;;;;;5.20;2.90;;;4.40;99.90;;;;;;5023548;28;20103;-68
2022/03/09 10:56:20;;;;;;;11.63;2.30;;;4.40;99.90;;;;;;5014962;28;20105;-72
2022/03/09 10:58:47;;;;;;;6.82;2.35;;;4.40;99.90;;;;;;5020225;28;20556;-68
2022/03/09 11:01:18;;;;;;;3.65;2.10;;;4.50;99.90;;;;;;5016314;28;20132;-72
2022/03/09 11:03:46;;;;;;;7.43;1.88;;;4.50;99.90;;;;;;5020073;28;20148;-71
2022/03/09 11:06:14;;;;;;;6.10;1.88;;;4.40;99.90;;;;;;5012255;28;20045;-67
2022/03/09 11:08:41;;;;;;;9.68;3.13;;;4.40;99.90;;;;;;5028305;28;20125;-71
2022/03/09 11:11:09;;;;;;;15.13;3.55;;;4.50;99.90;;;;;;5018739;28;20065;-64
2022/03/09 11:13:38;;;;;;;13.07;2.22;;;4.50;99.90;;;;;;5032459;28;20642;-67
2022/03/09 11:16:07;;;;;;;16.55;3.15;;;4.50;99.90;;;;;;5026176;28;20161;-64
2022/03/09 11:18:35;;;;;;;7.25;2.67;;;4.50;99.90;;;;;;5014995;28;20063;-66
2022/03/09 11:21:05;;;;;;;7.30;2.22;;;4.50;99.90;;;;;;5022304;28;20065;-65
2022/03/09 11:23:33;;;;;;;7.50;1.75;;;4.60;99.90;;;;;;5023967;28;20057;-66
2022/03/09 11:26:03;;;;;;;5.10;2.13;;;4.50;99.90;;;;;;5024581;28;20041;-64
2022/03/09 11:28:34;;;;;;;7.55;3.47;;;4.60;99.90;;;;;;5024044;28;20499;-69
2022/03/09 11:31:07;;;;;;;8.63;2.60;;;4.70;99.90;;;;;;5023551;28;20657;-65
2022/03/09 11:33:53;;;;;;;7.78;2.30;;;4.70;99.90;;;;;;5025840;28;20108;-70
2022/03/09 11:36:26;;;;;;;8.65;2.45;;;4.70;99.90;;;;;;5025108;28;20063;-65
2022/03/09 11:38:54;;;;;;;5.40;2.35;;;4.70;99.90;;;;;;5021523;28;20157;-69
2022/03/09 11:41:24;;;;;;;7.93;2.63;;;4.70;99.90;;;;;;5023319;28;20451;-65
2022/03/09 11:43:52;;;;;;;8.45;2.95;;;4.80;99.90;;;;;;5024115;28;20045;-65
2022/03/09 11:46:20;;;;;;;6.75;2.03;;;4.90;99.90;;;;;;5021959;28;20448;-67
2022/03/09 11:48:55;;;;;;;13.32;2.35;;;4.90;99.90;;;;;;5015561;28;20073;-64
2022/03/09 11:51:26;;;;;;;9.18;3.05;;;4.90;99.90;;;;;;5020580;28;20068;-67
2022/03/09 11:53:55;;;;;;;9.30;4.63;;;4.80;99.90;;;;;;5019258;28;20069;-69
2022/03/09 11:56:37;;;;;;;4.45;2.13;;;4.90;99.90;;;;;;5020024;28;20115;-65
2022/03/09 11:59:18;;;;;;;9.23;2.20;;;5.00;99.90;;;;;;5021073;28;20049;-73
2022/03/09 12:02:08;;;;;;;7.53;2.95;;;5.20;99.90;;;;;;5023948;28;20801;-64
2022/03/09 12:04:48;;;;;;;9.57;2.38;;;5.20;99.90;;;;;;5017846;28;20129;-75
2022/03/09 12:07:35;;;;;;;7.15;2.72;;;5.30;99.90;;;;;;5025634;28;20103;-64
2022/03/09 12:10:09;;;;;;;5.30;1.92;;;5.20;99.90;;;;;;5017660;28;20101;-69
2022/03/09 12:12:57;;;;;;;7.80;2.50;;;5.20;99.90;;;;;;5024558;28;20057;-65
2022/03/09 12:15:24;;;;;;;4.18;2.08;;;5.20;99.90;;;;;;5024616;28;20132;-66
2022/03/09 12:17:51;;;;;;;10.23;3.53;;;5.40;99.90;;;;;;5020868;28;20129;-76
2022/03/09 12:20:27;;;;;;;17.77;4.22;;;5.30;99.90;;;;;;5022701;28;20041;-64
2022/03/09 12:23:00;;;;;;;11.70;2.60;;;5.40;99.90;;;;;;5028444;28;20049;-73
2022/03/09 12:25:47;;;;;;;6.32;2.85;;;5.60;99.90;;;;;;5028417;28;20111;-71
2022/03/09 12:28:27;;;;;;;8.70;2.85;;;5.70;99.90;;;;;;5017356;28;20045;-72
2022/03/09 12:30:58;;;;;;;8.75;2.83;;;5.60;99.90;;;;;;5023057;28;20154;-69
2022/03/09 12:33:28;;;;;;;11.02;2.75;;;5.60;99.90;;;;;;5024120;28;20045;-64
2022/03/09 12:36:05;;;;;;;13.70;3.78;;;5.50;99.90;;;;;;5024183;28;20053;-70
2022/03/09 12:38:54;;;;;;;7.65;2.83;;;5.60;99.90;;;;;;5026892;28;20455;-65
2022/03/09 12:41:36;;;;;;;16.25;3.05;;;5.60;99.90;;;;;;5024292;28;20115;-68
2022/03/09 12:44:06;;;;;;;14.68;3.88;;;5.70;99.90;;;;;;5027450;28;20111;-68
2022/03/09 12:46:35;;;;;;;6.43;2.67;;;5.80;99.90;;;;;;5022141;28;20400;-67
2022/03/09 12:49:07;;;;;;;19.77;3.92;;;5.90;99.90;;;;;;5022648;28;20045;-64
2022/03/09 12:51:36;;;;;;;10.32;3.45;;;6.20;99.90;;;;;;5031799;28;20716;-75
2022/03/09 12:54:33;;;;;;;7.45;3.78;;;6.40;99.90;;;;;;5008159;28;20073;-66
2022/03/09 12:57:07;;;;;;;26.27;4.13;;;6.80;99.90;;;;;;5025047;28;20048;-68
2022/03/09 12:59:35;;;;;;;11.15;1.85;;;7.20;99.90;;;;;;5028399;28;20049;-67
2022/03/09 13:02:03;;;;;;;6.97;1.35;;;7.40;99.90;;;;;;5030337;28;20145;-64